createdAt,value
2022-09-23T00:00:17.293Z,36.81
2022-09-23T00:02:21.912Z,36.69
2022-09-23T00:04:26.323Z,36.6
2022-09-23T00:06:30.675Z,36.58
2022-09-23T00:08:35.152Z,36.47
2022-09-23T00:10:39.593Z,36.64
2022-09-23T00:12:43.940Z,36.57
2022-09-23T00:14:48.283Z,36.61
2022-09-23T00:16:53.244Z,36.6
2022-09-23T00:18:57.886Z,36.48
2022-09-23T00:21:02.222Z,36.47
2022-09-23T00:23:06.587Z,36.47
2022-09-23T00:25:10.978Z,36.48
2022-09-23T00:27:15.368Z,36.41
2022-09-23T00:29:19.722Z,36.38
2022-09-23T00:31:24.305Z,36.46
2022-09-23T00:33:28.764Z,36.49
2022-09-23T00:35:33.120Z,36.43
2022-09-23T00:37:37.490Z,36.45
2022-09-23T00:39:41.873Z,36.4
2022-09-23T00:41:46.214Z,36.34
2022-09-23T00:43:50.591Z,36.29
2022-09-23T00:45:55.161Z,36.26
2022-09-23T00:47:59.588Z,36.2
2022-09-23T00:50:03.951Z,36.12
2022-09-23T00:52:08.346Z,36.28
2022-09-23T00:54:12.767Z,36.24
2022-09-23T00:56:17.158Z,36.16
2022-09-23T00:58:21.503Z,36.14
2022-09-23T01:00:25.871Z,36.15
2022-09-23T01:02:30.622Z,36.17
2022-09-23T01:04:34.969Z,36.2
2022-09-23T01:06:39.346Z,36.14
2022-09-23T01:08:43.701Z,36.12
2022-09-23T01:10:48.049Z,36.16
2022-09-23T01:12:52.437Z,36.06
2022-09-23T01:14:56.793Z,35.99
2022-09-23T01:17:01.451Z,36.03
2022-09-23T01:19:05.868Z,35.98
2022-09-23T01:21:10.212Z,36
2022-09-23T01:23:14.611Z,36.03
2022-09-23T01:25:18.952Z,36.03
2022-09-23T01:27:23.279Z,36.05
2022-09-23T01:29:27.819Z,36.1
2022-09-23T01:31:32.169Z,36.11
2022-09-23T01:33:36.530Z,36.02
2022-09-23T01:35:40.891Z,35.97
2022-09-23T01:37:45.293Z,36.02
2022-09-23T01:39:49.618Z,36.06
2022-09-23T01:41:53.991Z,35.98
2022-09-23T01:43:58.329Z,35.97
2022-09-23T01:46:02.679Z,35.93
2022-09-23T01:48:07.334Z,35.89
2022-09-23T01:50:11.724Z,35.91
2022-09-23T01:52:16.134Z,35.89
2022-09-23T01:54:20.499Z,35.98
2022-09-23T01:56:24.884Z,35.83
2022-09-23T01:58:29.248Z,35.91
2022-09-23T02:00:33.619Z,35.83
2022-09-23T02:02:38.266Z,35.89
2022-09-23T02:04:42.651Z,35.88
2022-09-23T02:06:46.998Z,35.83
2022-09-23T02:08:51.414Z,35.81
2022-09-23T02:10:55.768Z,35.81
2022-09-23T02:13:00.118Z,35.76
2022-09-23T02:15:04.484Z,35.76
2022-09-23T02:17:08.870Z,35.77
2022-09-23T02:19:13.218Z,35.76
2022-09-23T02:21:17.598Z,35.69
2022-09-23T02:23:22.224Z,35.72
2022-09-23T02:25:26.582Z,35.65
2022-09-23T02:27:30.997Z,35.6
2022-09-23T02:29:35.370Z,35.64
2022-09-23T02:31:39.926Z,35.6
2022-09-23T02:33:44.356Z,35.64
2022-09-23T02:35:48.744Z,35.59
2022-09-23T02:37:53.156Z,35.62
2022-09-23T02:39:57.527Z,35.68
2022-09-23T02:42:01.905Z,35.67
2022-09-23T02:44:06.389Z,35.62
2022-09-23T02:46:11.026Z,35.6
2022-09-23T02:48:15.406Z,35.58
2022-09-23T02:50:19.833Z,35.57
2022-09-23T02:52:24.202Z,35.54
2022-09-23T02:54:28.564Z,35.52
2022-09-23T02:56:32.962Z,35.61
2022-09-23T02:58:37.323Z,35.6
2022-09-23T03:00:41.721Z,35.61
2022-09-23T03:02:46.138Z,35.53
2022-09-23T03:04:50.516Z,35.5
2022-09-23T03:06:54.907Z,35.54
2022-09-23T03:08:59.346Z,35.48
2022-09-23T03:11:03.728Z,35.53
2022-09-23T03:13:08.091Z,35.53
2022-09-23T03:15:12.422Z,35.44
2022-09-23T03:17:16.778Z,35.48
2022-09-23T03:19:21.170Z,35.54
2022-09-23T03:21:25.535Z,35.47
2022-09-23T03:23:29.874Z,35.44
2022-09-23T03:25:34.264Z,35.4
2022-09-23T03:27:38.698Z,35.48
2022-09-23T03:29:43.067Z,35.45
2022-09-23T03:31:47.687Z,35.47
2022-09-23T03:33:52.091Z,35.38
2022-09-23T03:35:56.432Z,35.41
2022-09-23T03:38:00.784Z,35.47
2022-09-23T03:40:05.366Z,35.41
2022-09-23T03:42:09.761Z,35.46
2022-09-23T03:44:14.348Z,35.38
2022-09-23T03:46:19.090Z,35.42
2022-09-23T03:48:23.453Z,35.46
2022-09-23T03:50:27.834Z,35.49
2022-09-23T03:52:32.183Z,35.42
2022-09-23T03:54:36.577Z,35.42
2022-09-23T03:56:40.927Z,35.49
2022-09-23T03:58:45.302Z,35.5
2022-09-23T04:00:49.989Z,35.5
2022-09-23T04:02:54.380Z,35.52
2022-09-23T04:04:58.769Z,35.57
2022-09-23T04:07:03.143Z,35.59
2022-09-23T04:09:07.502Z,35.59
2022-09-23T04:11:11.860Z,35.62
2022-09-23T04:13:16.199Z,35.6
2022-09-23T04:15:20.573Z,35.61
2022-09-23T04:17:25.023Z,35.57
2022-09-23T04:19:29.467Z,35.53
2022-09-23T04:21:33.814Z,35.5
2022-09-23T04:23:38.149Z,35.48
2022-09-23T04:25:42.486Z,35.48
2022-09-23T04:27:46.809Z,35.46
2022-09-23T04:29:51.236Z,35.4
2022-09-23T04:31:55.947Z,35.46
2022-09-23T04:34:00.343Z,36.11
2022-09-23T04:36:04.662Z,36.37
2022-09-23T04:38:09.024Z,36.7
2022-09-23T04:40:13.571Z,37.01
2022-09-23T04:42:17.934Z,37.21
2022-09-23T04:44:22.387Z,37.52
2022-09-23T04:46:26.934Z,37.81
2022-09-23T04:48:31.370Z,38.19
2022-09-23T04:50:35.853Z,38.11
2022-09-23T04:52:40.211Z,38.21
2022-09-23T04:54:44.546Z,38.25
2022-09-23T04:56:48.913Z,38.29
2022-09-23T04:58:53.230Z,38.3
2022-09-23T05:01:05.041Z,38.38
2022-09-23T05:03:09.742Z,38.41
2022-09-23T05:05:14.136Z,38.4
2022-09-23T05:07:18.474Z,38.5
2022-09-23T05:09:22.837Z,38.39
2022-09-23T05:11:27.218Z,38.38
2022-09-23T05:13:31.564Z,38.71
2022-09-23T05:15:35.965Z,38.77
2022-09-23T05:17:40.358Z,39.08
2022-09-23T05:19:44.721Z,39.52
2022-09-23T05:21:49.131Z,39.62
2022-09-23T05:23:53.460Z,40.02
2022-09-23T05:25:57.851Z,40.07
2022-09-23T05:28:02.228Z,40.05
2022-09-23T05:30:06.618Z,40.1
2022-09-23T05:32:10.989Z,40.36
2022-09-23T05:34:15.379Z,40.33
2022-09-23T05:36:19.773Z,40.72
2022-09-23T05:38:24.460Z,40.67
2022-09-23T05:40:29.103Z,40.88
2022-09-23T05:42:33.558Z,41.03
2022-09-23T05:44:37.874Z,41.11
2022-09-23T05:46:42.599Z,41.03
2022-09-23T05:48:47.029Z,41
2022-09-23T05:50:51.402Z,40.95
2022-09-23T05:52:55.778Z,40.9
2022-09-23T05:55:00.208Z,40.83
2022-09-23T05:57:07.128Z,40.82
2022-09-23T05:59:11.604Z,40.83
2022-09-23T06:01:15.982Z,40.85
2022-09-23T06:03:20.616Z,40.92
2022-09-23T06:05:25.050Z,41.05
2022-09-23T06:07:29.667Z,41.06
2022-09-23T06:09:38.545Z,41.18
2022-09-23T06:11:42.908Z,41.42
2022-09-23T06:13:47.299Z,41.51
2022-09-23T06:15:51.868Z,42
2022-09-23T06:17:56.310Z,42.47
2022-09-23T06:20:00.680Z,42.68
2022-09-23T06:22:05.060Z,42.55
2022-09-23T06:24:10.820Z,42.4
2022-09-23T06:26:16.222Z,42.4
2022-09-23T06:28:20.577Z,42.32
2022-09-23T06:30:24.955Z,42.35
2022-09-23T06:32:29.353Z,42.15
2022-09-23T06:34:52.623Z,41.85
2022-09-23T06:36:57.010Z,41.74
2022-09-23T06:39:01.362Z,41.55
2022-09-23T06:41:05.649Z,41.52
2022-09-23T06:43:09.984Z,41.26
2022-09-23T06:45:14.388Z,41.14
2022-09-23T06:47:18.738Z,41.23
2022-09-23T06:49:23.182Z,41.15
2022-09-23T06:51:27.539Z,40.95
2022-09-23T06:53:31.965Z,40.92
2022-09-23T06:55:36.373Z,40.9
2022-09-23T06:57:40.724Z,40.96
2022-09-23T06:59:45.148Z,40.94
2022-09-23T07:01:50.204Z,40.96
2022-09-23T07:03:54.761Z,40.93
2022-09-23T07:05:59.157Z,40.89
2022-09-23T07:08:03.505Z,40.89
2022-09-23T07:10:07.900Z,40.8
2022-09-23T07:12:12.288Z,40.81
2022-09-23T07:14:16.669Z,40.82
2022-09-23T07:16:21.330Z,40.84
2022-09-23T07:18:25.831Z,40.53
2022-09-23T07:20:30.249Z,40.63
2022-09-23T07:22:37.682Z,40.8
2022-09-23T07:24:42.063Z,40.75
2022-09-23T07:26:47.765Z,40.81
2022-09-23T07:28:52.101Z,40.75
2022-09-23T07:31:02.654Z,40.71
2022-09-23T07:33:33.643Z,40.71
2022-09-23T07:35:38.160Z,40.7
2022-09-23T07:37:42.536Z,40.67
2022-09-23T07:39:46.911Z,40.64
2022-09-23T07:41:51.276Z,40.62
2022-09-23T07:43:55.635Z,40.58
2022-09-23T07:46:00.266Z,40.59
2022-09-23T07:48:04.667Z,40.58
2022-09-23T07:50:09.021Z,40.61
2022-09-23T07:52:13.376Z,40.56
2022-09-23T07:54:17.771Z,40.4
2022-09-23T07:56:22.139Z,40.56
2022-09-23T07:58:26.909Z,40.58
2022-09-23T08:00:31.285Z,40.56
2022-09-23T08:02:35.923Z,40.55
2022-09-23T08:04:40.331Z,40.55
2022-09-23T08:06:44.732Z,40.49
2022-09-23T08:08:55.052Z,40.46
2022-09-23T08:10:59.471Z,40.39
2022-09-23T08:13:03.841Z,40.32
2022-09-23T08:15:08.460Z,40.38
2022-09-23T08:17:12.880Z,40.49
2022-09-23T08:19:17.243Z,40.47
2022-09-23T08:21:21.618Z,40.43
2022-09-23T08:23:25.983Z,40.41
2022-09-23T08:25:35.570Z,40.47
2022-09-23T08:27:39.925Z,40.41
2022-09-23T08:29:44.375Z,40.41
2022-09-23T08:31:48.809Z,40.38
2022-09-23T08:33:53.171Z,40.39
2022-09-23T08:35:57.642Z,40.35
2022-09-23T08:38:02.054Z,40.35
2022-09-23T08:40:06.581Z,40.34
2022-09-23T08:42:11.029Z,40.39
2022-09-23T08:44:15.357Z,40.38
2022-09-23T08:46:20.010Z,40.39
2022-09-23T08:48:24.477Z,40.37
2022-09-23T08:50:28.809Z,40.4
2022-09-23T08:52:33.238Z,40.33
2022-09-23T08:54:37.604Z,40.33
2022-09-23T08:56:42.013Z,40.3
2022-09-23T08:58:46.376Z,40.36
2022-09-23T09:00:50.797Z,40.39
2022-09-23T09:02:55.510Z,40.44
2022-09-23T09:05:00.017Z,40.4
2022-09-23T09:07:38.791Z,40.41
2022-09-23T09:09:43.249Z,40.43
2022-09-23T09:11:50.559Z,40.42
2022-09-23T09:13:54.912Z,40.51
2022-09-23T09:15:59.490Z,40.45
2022-09-23T09:18:03.993Z,40.46
2022-09-23T09:20:08.418Z,40.32
2022-09-23T09:22:12.792Z,40.28
2022-09-23T09:24:17.203Z,40.44
2022-09-23T09:26:21.581Z,40.45
2022-09-23T09:28:25.931Z,40.49
2022-09-23T09:30:30.311Z,40.46
2022-09-23T09:32:34.784Z,40.47
2022-09-23T09:34:39.151Z,40.44
2022-09-23T09:36:43.542Z,40.43
2022-09-23T09:38:47.906Z,40.43
2022-09-23T09:40:52.611Z,40.39
2022-09-23T09:42:57.002Z,40.28
2022-09-23T09:45:01.383Z,40.4
2022-09-23T09:47:06.045Z,40.35
2022-09-23T09:49:10.570Z,40.45
2022-09-23T09:51:15.021Z,40.38
2022-09-23T09:53:19.427Z,40.43
2022-09-23T09:55:23.795Z,40.38
2022-09-23T09:57:35.108Z,40.51
2022-09-23T09:59:40.528Z,40.39
2022-09-23T10:01:45.095Z,40.38
2022-09-23T10:03:49.532Z,40.24
2022-09-23T10:05:53.890Z,40.14
2022-09-23T10:07:58.230Z,40.07
2022-09-23T10:10:32.681Z,40.12
2022-09-23T10:12:37.632Z,40.37
2022-09-23T10:14:42.021Z,40.35
2022-09-23T10:16:46.588Z,40.32
2022-09-23T10:18:50.971Z,40.27
2022-09-23T10:20:55.362Z,40.27
2022-09-23T10:22:59.799Z,40.16
2022-09-23T10:25:04.258Z,40.1
2022-09-23T10:27:08.751Z,40.13
2022-09-23T10:29:13.107Z,40.12
2022-09-23T10:31:17.800Z,40.07
2022-09-23T10:33:22.368Z,40.13
2022-09-23T10:35:26.743Z,40.1
2022-09-23T10:37:31.220Z,39.99
2022-09-23T10:39:35.557Z,39.99
2022-09-23T10:41:39.966Z,39.92
2022-09-23T10:43:44.424Z,39.89
2022-09-23T10:45:49.089Z,39.86
2022-09-23T10:47:53.500Z,39.79
2022-09-23T10:49:57.890Z,39.72
2022-09-23T10:52:02.221Z,40.27
2022-09-23T10:54:06.836Z,40.22
2022-09-23T10:56:11.375Z,40.17
2022-09-23T10:58:15.726Z,40.03
2022-09-23T11:00:20.087Z,40
2022-09-23T11:02:24.505Z,39.99
2022-09-23T11:04:29.109Z,39.9
2022-09-23T11:06:33.607Z,40.03
2022-09-23T11:08:38.063Z,40.42
2022-09-23T11:10:49.902Z,40.83
2022-09-23T11:12:54.275Z,34.85
2022-09-23T11:14:58.668Z,35.35
2022-09-23T11:17:03.333Z,35.73
2022-09-23T11:19:07.784Z,34.09
2022-09-23T11:21:12.166Z,33.11
2022-09-23T11:23:16.613Z,33.68
2022-09-23T11:25:20.965Z,33.12
2022-09-23T11:27:25.363Z,32.66
2022-09-23T11:29:29.762Z,31.96
2022-09-23T11:31:34.253Z,31.79
2022-09-23T11:33:38.671Z,31.63
2022-09-23T11:35:43.037Z,32.16
2022-09-23T11:37:47.402Z,32.68
2022-09-23T11:39:51.779Z,31.85
2022-09-23T11:41:56.163Z,31.61
2022-09-23T11:44:00.726Z,32.29
2022-09-23T11:46:05.577Z,33.33
2022-09-23T11:48:09.981Z,33.96
2022-09-23T11:50:14.489Z,34.2
2022-09-23T11:52:18.875Z,34.5
2022-09-23T11:54:23.250Z,34.53
2022-09-23T11:56:41.190Z,34.86
2022-09-23T11:58:59.792Z,35.32
2022-09-23T12:01:11.296Z,35.43
2022-09-23T12:03:16.319Z,35.8
2022-09-23T12:05:21.270Z,35.87
2022-09-23T12:07:25.662Z,36.14
2022-09-23T12:09:59.808Z,36.74
2022-09-23T12:12:05.330Z,36.75
2022-09-23T12:14:09.877Z,36.79
2022-09-23T12:16:14.544Z,36.93
2022-09-23T12:18:24.828Z,37.54
2022-09-23T12:20:29.240Z,37.56
2022-09-23T12:22:33.622Z,37.72
2022-09-23T12:24:38.003Z,37.44
2022-09-23T12:26:42.323Z,37.56
2022-09-23T12:28:47.016Z,37.81
2022-09-23T12:30:51.725Z,37.99
2022-09-23T12:32:56.102Z,38.17
2022-09-23T12:35:00.526Z,38.26
2022-09-23T12:37:04.899Z,38.26
2022-09-23T12:39:09.353Z,38.3
2022-09-23T12:41:13.712Z,38.36
2022-09-23T12:43:18.089Z,38.43
2022-09-23T12:45:22.527Z,38.46
2022-09-23T12:47:26.897Z,38.47
2022-09-23T12:49:31.313Z,38.46
2022-09-23T12:51:35.723Z,38.49
2022-09-23T12:53:40.290Z,38.54
2022-09-23T12:55:44.728Z,38.63
2022-09-23T12:57:49.106Z,38.69
2022-09-23T12:59:53.522Z,38.7
2022-09-23T13:01:58.412Z,38.7
2022-09-23T13:04:03.647Z,38.74
2022-09-23T13:06:08.091Z,38.75
2022-09-23T13:08:12.563Z,38.75
2022-09-23T13:10:17.008Z,38.79
2022-09-23T13:12:21.491Z,38.84
2022-09-23T13:14:29.701Z,38.86
2022-09-23T13:16:34.636Z,38.88
2022-09-23T13:18:39.103Z,38.88
2022-09-23T13:20:43.534Z,38.88
2022-09-23T13:22:47.976Z,38.89
2022-09-23T13:24:52.466Z,38.94
2022-09-23T13:26:56.915Z,38.96
2022-09-23T13:29:01.346Z,38.94
2022-09-23T13:31:06.021Z,38.94
2022-09-23T13:33:10.475Z,38.97
2022-09-23T13:35:14.897Z,38.97
2022-09-23T13:37:24.249Z,38.97
2022-09-23T13:39:28.705Z,39.01
2022-09-23T13:41:33.155Z,39.01
2022-09-23T13:43:43.212Z,38.98
2022-09-23T13:45:47.838Z,38.97
2022-09-23T13:47:52.449Z,38.98
2022-09-23T13:49:56.925Z,39.17
2022-09-23T13:52:01.387Z,39.29
2022-09-23T13:54:05.908Z,39.29
2022-09-23T13:56:10.360Z,39.4
2022-09-23T13:58:14.799Z,39.41
2022-09-23T14:00:19.268Z,39.58
2022-09-23T14:02:23.992Z,39.69
2022-09-23T14:04:28.516Z,39.71
2022-09-23T14:06:33.237Z,39.79
2022-09-23T14:08:37.685Z,36.55
2022-09-23T14:10:42.116Z,33.67
2022-09-23T14:12:46.567Z,32.63
2022-09-23T14:14:51.257Z,32.52
2022-09-23T14:16:55.966Z,32.42
2022-09-23T14:19:00.577Z,31.35
2022-09-23T14:21:05.000Z,30.62
2022-09-23T14:23:09.441Z,30.34
2022-09-23T14:25:14.027Z,30.04
2022-09-23T14:27:18.432Z,30.17
2022-09-23T14:29:22.857Z,30.03
2022-09-23T14:31:27.423Z,29.86
2022-09-23T14:33:31.860Z,30.2
2022-09-23T14:35:36.290Z,32.2
2022-09-23T14:37:40.686Z,32.01
2022-09-23T14:39:45.081Z,31.52
2022-09-23T14:41:49.490Z,32.16
2022-09-23T14:43:53.936Z,32.3
2022-09-23T14:45:58.815Z,32.6
2022-09-23T14:48:03.277Z,32.79
2022-09-23T14:50:07.736Z,32.98
2022-09-23T14:52:12.167Z,33.19
2022-09-23T14:54:16.597Z,33.43
2022-09-23T14:56:21.011Z,33.64
2022-09-23T14:58:25.477Z,33.87
2022-09-23T15:00:29.899Z,34.08
2022-09-23T15:02:34.428Z,34.25
2022-09-23T15:04:38.890Z,34.41
2022-09-23T15:06:43.381Z,34.55
2022-09-23T15:08:47.835Z,34.7
2022-09-23T15:10:52.242Z,34.82
2022-09-23T15:12:56.697Z,35.06
2022-09-23T15:15:01.104Z,35.03
2022-09-23T15:17:05.563Z,35.11
2022-09-23T15:19:10.074Z,35.18
2022-09-23T15:21:14.488Z,35.3
2022-09-23T15:23:18.941Z,35.37
2022-09-23T15:25:23.390Z,35.49
2022-09-23T15:27:27.956Z,35.58
2022-09-23T15:29:32.352Z,35.63
2022-09-23T15:31:37.081Z,35.74
2022-09-23T15:33:41.969Z,35.87
2022-09-23T15:35:46.421Z,35.98
2022-09-23T15:37:50.840Z,36.1
2022-09-23T15:39:55.290Z,36.12
2022-09-23T15:41:59.673Z,36.22
2022-09-23T15:44:04.280Z,36.38
2022-09-23T15:46:08.992Z,36.51
2022-09-23T15:48:13.510Z,36.88
2022-09-23T15:50:17.908Z,36.87
2022-09-23T15:52:22.359Z,37.44
2022-09-23T15:54:26.775Z,36.58
2022-09-23T15:56:31.196Z,37.51
2022-09-23T15:58:35.659Z,37.73
2022-09-23T16:00:40.297Z,37.64
2022-09-23T16:02:45.012Z,38.12
2022-09-23T16:04:49.463Z,38.11
2022-09-23T16:06:53.872Z,38.27
2022-09-23T16:08:58.377Z,38.13
2022-09-23T16:11:02.767Z,38.27
2022-09-23T16:13:07.341Z,38.35
2022-09-23T16:15:11.754Z,38.47
2022-09-23T16:17:16.294Z,38.59
2022-09-23T16:19:20.755Z,38.67
2022-09-23T16:21:25.144Z,38.8
2022-09-23T16:23:29.744Z,38.83
2022-09-23T16:25:34.326Z,38.94
2022-09-23T16:27:38.693Z,39.15
2022-09-23T16:29:43.083Z,39.18
2022-09-23T16:31:47.685Z,39.24
2022-09-23T16:33:52.175Z,39.46
2022-09-23T16:35:56.521Z,39.48
2022-09-23T16:38:00.896Z,39.55
2022-09-23T16:40:05.565Z,39.6
2022-09-23T16:42:09.993Z,39.67
2022-09-23T16:44:14.644Z,39.74
2022-09-23T16:46:19.455Z,39.84
2022-09-23T16:48:23.940Z,40.16
2022-09-23T16:50:28.379Z,40.18
2022-09-23T16:52:32.790Z,40.14
2022-09-23T16:54:37.285Z,40.19
2022-09-23T16:56:41.683Z,40.36
2022-09-23T16:58:46.133Z,40.4
2022-09-23T17:00:50.872Z,40.49
2022-09-23T17:02:55.410Z,40.54
2022-09-23T17:05:00.525Z,40.63
2022-09-23T17:07:04.927Z,40.78
2022-09-23T17:09:09.489Z,40.87
2022-09-23T17:11:13.995Z,40.96
2022-09-23T17:13:18.392Z,40.97
2022-09-23T17:15:22.800Z,41.05
2022-09-23T17:17:27.233Z,41.13
2022-09-23T17:19:31.620Z,40.39
2022-09-23T17:21:35.986Z,40.49
2022-09-23T17:23:40.379Z,40.61
2022-09-23T17:25:44.787Z,40.54
2022-09-23T17:27:49.145Z,40.5
2022-09-23T17:29:53.533Z,40.58
2022-09-23T17:31:58.250Z,40.46
2022-09-23T17:34:02.712Z,40.36
2022-09-23T17:36:07.120Z,40.61
2022-09-23T17:38:11.563Z,40.83
2022-09-23T17:40:16.657Z,40.73
2022-09-23T17:42:21.090Z,40.81
2022-09-23T17:44:25.446Z,41.03
2022-09-23T17:46:29.947Z,41.08
2022-09-23T17:48:34.386Z,41.07
2022-09-23T17:50:38.776Z,41.26
2022-09-23T17:52:43.166Z,41.25
2022-09-23T17:54:47.566Z,41.3
2022-09-23T17:56:51.989Z,41.49
2022-09-23T17:58:56.371Z,41.58
2022-09-23T18:01:01.114Z,41.67
2022-09-23T18:03:05.604Z,41.7
2022-09-23T18:05:10.106Z,41.45
2022-09-23T18:07:14.538Z,41.36
2022-09-23T18:09:19.128Z,41.29
2022-09-23T18:11:23.568Z,41.21
2022-09-23T18:13:28.132Z,41.17
2022-09-23T18:15:32.949Z,41.39
2022-09-23T18:17:37.604Z,41.4
2022-09-23T18:19:42.627Z,41.37
2022-09-23T18:21:47.193Z,41.61
2022-09-23T18:23:51.792Z,41.59
2022-09-23T18:25:56.279Z,41.62
2022-09-23T18:28:00.805Z,41.66
2022-09-23T18:30:05.517Z,41.83
2022-09-23T18:32:15.759Z,42.08
2022-09-23T18:34:20.564Z,41.7
2022-09-23T18:36:25.143Z,41.69
2022-09-23T18:38:29.576Z,41.58
2022-09-23T18:40:34.203Z,41.42
2022-09-23T18:42:38.700Z,41.42
2022-09-23T18:44:43.277Z,41.5
2022-09-23T18:46:47.607Z,41.56
2022-09-23T18:48:52.409Z,41.64
2022-09-23T18:50:56.989Z,39.09
2022-09-23T18:53:01.380Z,35.9
2022-09-23T18:55:06.096Z,34.92
2022-09-23T18:57:10.651Z,34.58
2022-09-23T18:59:15.295Z,34.79
2022-09-23T19:01:20.699Z,35.1
2022-09-23T19:03:25.298Z,35.38
2022-09-23T19:05:30.549Z,36.01
2022-09-23T19:07:35.759Z,37.12
2022-09-23T19:09:40.853Z,37.58
2022-09-23T19:11:45.636Z,37.82
2022-09-23T19:13:50.345Z,37.8
2022-09-23T19:15:55.041Z,38.24
2022-09-23T19:17:59.691Z,38.32
2022-09-23T19:20:04.303Z,37.56
2022-09-23T19:22:09.110Z,37.26
2022-09-23T19:24:13.993Z,37.07
2022-09-23T19:26:18.651Z,36.91
2022-09-23T19:28:23.141Z,36.63
2022-09-23T19:30:27.681Z,36.97
2022-09-23T19:32:32.156Z,37.33
2022-09-23T19:34:36.830Z,37.21
2022-09-23T19:36:41.348Z,37.08
2022-09-23T19:38:45.770Z,37.02
2022-09-23T19:40:52.484Z,37.02
2022-09-23T19:42:57.755Z,36.84
2022-09-23T19:45:02.593Z,36.87
2022-09-23T19:47:07.364Z,36.75
2022-09-23T19:49:11.997Z,36.62
2022-09-23T19:51:16.406Z,36.69
2022-09-23T19:53:22.841Z,36.6
2022-09-23T19:55:29.778Z,36.44
2022-09-23T19:57:34.208Z,36.48
2022-09-23T19:59:38.659Z,36.52
2022-09-23T20:01:43.403Z,36.48
2022-09-23T20:03:48.134Z,36.37
2022-09-23T20:05:52.624Z,36.31
2022-09-23T20:07:57.022Z,36.26
2022-09-23T20:10:01.490Z,36.12
2022-09-23T20:12:06.011Z,36.02
2022-09-23T20:14:10.653Z,36.03
2022-09-23T20:16:15.540Z,36.03
2022-09-23T20:18:20.080Z,35.85
2022-09-23T20:20:24.495Z,36.08
2022-09-23T20:22:34.894Z,35.84
2022-09-23T20:24:39.311Z,35.8
2022-09-23T20:26:43.783Z,35.82
2022-09-23T20:28:48.358Z,35.87
2022-09-23T20:30:52.766Z,35.95
2022-09-23T20:32:57.159Z,36.09
2022-09-23T20:35:01.597Z,36.03
2022-09-23T20:37:05.985Z,36.22
2022-09-23T20:39:10.450Z,36.26
2022-09-23T20:41:14.962Z,36.12
2022-09-23T20:43:19.432Z,35.99
2022-09-23T20:45:23.795Z,36.06
2022-09-23T20:47:28.206Z,35.88
2022-09-23T20:49:32.695Z,35.9
2022-09-23T20:51:37.072Z,35.8
2022-09-23T20:53:41.422Z,35.79
2022-09-23T20:55:45.825Z,35.63
2022-09-23T20:57:50.227Z,35.59
2022-09-23T20:59:54.634Z,35.62
2022-09-23T21:01:59.287Z,35.64
2022-09-23T21:04:03.733Z,35.57
2022-09-23T21:06:08.129Z,35.6
2022-09-23T21:08:12.514Z,35.54
2022-09-23T21:10:16.993Z,35.48
2022-09-23T21:12:21.347Z,35.47
2022-09-23T21:14:25.719Z,35.53
2022-09-23T21:16:30.510Z,35.53
2022-09-23T21:18:34.936Z,35.46
2022-09-23T21:20:39.372Z,35.43
2022-09-23T21:22:43.728Z,35.42
2022-09-23T21:25:30.881Z,35.37
2022-09-23T21:27:35.528Z,35.3
2022-09-23T21:29:39.961Z,35.31
2022-09-23T21:31:44.730Z,35.39
2022-09-23T21:33:49.238Z,35.42
2022-09-23T21:35:53.677Z,35.54
2022-09-23T21:37:58.036Z,35.5
2022-09-23T21:40:02.466Z,35.63
2022-09-23T21:42:06.932Z,35.58
2022-09-23T21:44:11.751Z,35.57
2022-09-23T21:46:16.498Z,35.56
2022-09-23T21:48:20.956Z,35.58
2022-09-23T21:50:25.376Z,35.61
2022-09-23T21:52:29.775Z,35.55
2022-09-23T21:54:34.142Z,35.51
2022-09-23T21:56:38.528Z,35.51
2022-09-23T21:58:43.028Z,35.48
2022-09-23T22:00:47.605Z,35.51
2022-09-23T22:02:52.033Z,35.54
2022-09-23T22:04:56.418Z,35.52
2022-09-23T22:07:00.830Z,35.47
2022-09-23T22:09:05.225Z,35.59
2022-09-23T22:11:09.658Z,35.66
2022-09-23T22:13:15.232Z,35.69
2022-09-23T22:15:19.610Z,35.72
2022-09-23T22:17:23.989Z,35.55
2022-09-23T22:19:28.387Z,35.64
2022-09-23T22:21:32.735Z,35.55
2022-09-23T22:23:37.099Z,35.49
2022-09-23T22:25:41.455Z,35.6
2022-09-23T22:27:45.837Z,35.56
2022-09-23T22:29:50.213Z,35.56
2022-09-23T22:31:54.833Z,35.55
2022-09-23T22:33:59.278Z,35.55
2022-09-23T22:36:03.712Z,35.58
2022-09-23T22:38:08.140Z,35.68
2022-09-23T22:40:12.818Z,35.58
2022-09-23T22:42:17.241Z,35.57
2022-09-23T22:44:21.597Z,35.6
2022-09-23T22:46:26.252Z,35.57
2022-09-23T22:48:30.667Z,35.59
2022-09-23T22:50:35.035Z,35.62
2022-09-23T22:52:39.456Z,35.59
2022-09-23T22:54:43.822Z,35.48
2022-09-23T22:56:48.199Z,35.67
2022-09-23T22:58:52.566Z,35.6
2022-09-23T23:00:57.012Z,35.55
2022-09-23T23:03:01.388Z,35.64
2022-09-23T23:05:05.768Z,35.66
2022-09-23T23:07:10.187Z,35.65
2022-09-23T23:09:14.556Z,35.64
2022-09-23T23:11:19.002Z,35.68
2022-09-23T23:13:23.401Z,35.71
2022-09-23T23:15:27.789Z,35.68
2022-09-23T23:17:32.186Z,35.69
2022-09-23T23:19:36.544Z,35.65
2022-09-23T23:21:40.980Z,35.62
2022-09-23T23:23:45.356Z,35.62
2022-09-23T23:25:49.710Z,35.6
2022-09-23T23:27:54.069Z,35.62
2022-09-23T23:29:58.416Z,35.63
2022-09-23T23:32:02.790Z,35.82
2022-09-23T23:34:07.232Z,35.68
2022-09-23T23:36:11.611Z,35.68
2022-09-23T23:38:16.016Z,35.68
2022-09-23T23:40:20.631Z,35.67
2022-09-23T23:42:25.064Z,35.62
2022-09-23T23:44:29.409Z,35.67
2022-09-23T23:46:34.047Z,35.63
2022-09-23T23:48:38.504Z,35.59
2022-09-23T23:50:42.841Z,35.64
2022-09-23T23:52:47.232Z,35.71
2022-09-23T23:54:51.587Z,35.62
2022-09-23T23:56:55.926Z,35.63
2022-09-23T23:59:00.277Z,35.69
